sensor_id;sensor_type;location;lat;lon;timestamp;temperature;humidity
71291;DHT22;59073;51.994;4.448;2022-08-19T00:01:48;19.27;79.02
71291;DHT22;59073;51.994;4.448;2022-08-19T00:04:21;19.23;79.31
71291;DHT22;59073;51.994;4.448;2022-08-19T00:06:47;19.22;79.23
71291;DHT22;59073;51.994;4.448;2022-08-19T00:09:16;19.27;79.82
71291;DHT22;59073;51.994;4.448;2022-08-19T00:11:43;19.34;79.56
71291;DHT22;59073;51.994;4.448;2022-08-19T00:14:12;19.33;78.93
71291;DHT22;59073;51.994;4.448;2022-08-19T00:16:46;19.20;78.55
71291;DHT22;59073;51.994;4.448;2022-08-19T00:19:14;19.12;78.73
71291;DHT22;59073;51.994;4.448;2022-08-19T00:21:40;18.99;78.80
71291;DHT22;59073;51.994;4.448;2022-08-19T00:24:10;18.98;78.82
71291;DHT22;59073;51.994;4.448;2022-08-19T00:26:37;18.91;79.17
71291;DHT22;59073;51.994;4.448;2022-08-19T00:29:05;18.88;79.48
71291;DHT22;59073;51.994;4.448;2022-08-19T00:31:30;18.89;79.04
71291;DHT22;59073;51.994;4.448;2022-08-19T00:33:56;18.87;79.22
71291;DHT22;59073;51.994;4.448;2022-08-19T00:36:24;18.87;79.16
71291;DHT22;59073;51.994;4.448;2022-08-19T00:38:50;18.85;79.11
71291;DHT22;59073;51.994;4.448;2022-08-19T00:41:19;18.78;79.05
71291;DHT22;59073;51.994;4.448;2022-08-19T00:46:33;18.50;80.02
71291;DHT22;59073;51.994;4.448;2022-08-19T00:49:26;18.55;79.96
71291;DHT22;59073;51.994;4.448;2022-08-19T00:52:00;18.60;79.74
71291;DHT22;59073;51.994;4.448;2022-08-19T00:54:27;18.55;79.73
71291;DHT22;59073;51.994;4.448;2022-08-19T00:56:52;18.41;80.45
71291;DHT22;59073;51.994;4.448;2022-08-19T00:59:19;18.41;81.37
71291;DHT22;59073;51.994;4.448;2022-08-19T01:01:46;18.55;81.37
71291;DHT22;59073;51.994;4.448;2022-08-19T01:04:13;18.71;81.03
71291;DHT22;59073;51.994;4.448;2022-08-19T01:06:40;18.88;80.99
71291;DHT22;59073;51.994;4.448;2022-08-19T01:09:07;18.96;80.66
71291;DHT22;59073;51.994;4.448;2022-08-19T01:11:36;19.05;79.86
71291;DHT22;59073;51.994;4.448;2022-08-19T01:14:04;19.02;80.07
71291;DHT22;59073;51.994;4.448;2022-08-19T01:16:32;19.12;80.12
71291;DHT22;59073;51.994;4.448;2022-08-19T01:18:58;19.20;79.97
71291;DHT22;59073;51.994;4.448;2022-08-19T01:21:34;19.22;80.45
71291;DHT22;59073;51.994;4.448;2022-08-19T01:24:01;19.20;80.70
71291;DHT22;59073;51.994;4.448;2022-08-19T01:26:27;19.19;80.76
71291;DHT22;59073;51.994;4.448;2022-08-19T01:28:57;19.30;80.88
71291;DHT22;59073;51.994;4.448;2022-08-19T01:31:26;19.37;80.60
71291;DHT22;59073;51.994;4.448;2022-08-19T01:33:54;19.43;80.11
71291;DHT22;59073;51.994;4.448;2022-08-19T01:36:32;19.46;80.07
71291;DHT22;59073;51.994;4.448;2022-08-19T01:39:01;19.37;80.88
71291;DHT22;59073;51.994;4.448;2022-08-19T01:41:27;19.24;82.06
71291;DHT22;59073;51.994;4.448;2022-08-19T01:43:53;19.22;82.33
71291;DHT22;59073;51.994;4.448;2022-08-19T01:46:19;19.26;82.02
71291;DHT22;59073;51.994;4.448;2022-08-19T01:48:45;19.24;81.99
71291;DHT22;59073;51.994;4.448;2022-08-19T01:51:12;19.33;81.74
71291;DHT22;59073;51.994;4.448;2022-08-19T01:53:39;19.47;81.53
71291;DHT22;59073;51.994;4.448;2022-08-19T01:56:06;19.60;80.70
71291;DHT22;59073;51.994;4.448;2022-08-19T01:58:36;19.66;79.97
71291;DHT22;59073;51.994;4.448;2022-08-19T02:01:05;19.64;79.27
71291;DHT22;59073;51.994;4.448;2022-08-19T02:03:32;19.66;78.96
71291;DHT22;59073;51.994;4.448;2022-08-19T02:05:59;19.67;79.63
71291;DHT22;59073;51.994;4.448;2022-08-19T02:08:29;19.70;79.56
71291;DHT22;59073;51.994;4.448;2022-08-19T02:10:55;19.67;79.14
71291;DHT22;59073;51.994;4.448;2022-08-19T02:13:22;19.63;78.42
71291;DHT22;59073;51.994;4.448;2022-08-19T02:15:47;19.39;78.54
71291;DHT22;59073;51.994;4.448;2022-08-19T02:18:16;19.32;79.06
71291;DHT22;59073;51.994;4.448;2022-08-19T02:20:44;19.24;78.68
71291;DHT22;59073;51.994;4.448;2022-08-19T02:23:17;19.12;78.82
71291;DHT22;59073;51.994;4.448;2022-08-19T02:25:46;19.05;79.44
71291;DHT22;59073;51.994;4.448;2022-08-19T02:28:12;19.06;79.51
71291;DHT22;59073;51.994;4.448;2022-08-19T02:30:40;19.18;79.78
71291;DHT22;59073;51.994;4.448;2022-08-19T02:33:06;19.20;79.92
71291;DHT22;59073;51.994;4.448;2022-08-19T02:35:32;19.16;79.82
71291;DHT22;59073;51.994;4.448;2022-08-19T02:37:57;19.16;79.58
71291;DHT22;59073;51.994;4.448;2022-08-19T02:40:48;19.13;79.68
71291;DHT22;59073;51.994;4.448;2022-08-19T02:43:15;19.22;79.82
71291;DHT22;59073;51.994;4.448;2022-08-19T02:45:41;19.16;79.44
71291;DHT22;59073;51.994;4.448;2022-08-19T02:48:06;19.06;79.33
71291;DHT22;59073;51.994;4.448;2022-08-19T02:50:37;19.12;79.56
71291;DHT22;59073;51.994;4.448;2022-08-19T02:53:04;19.02;79.68
71291;DHT22;59073;51.994;4.448;2022-08-19T02:55:29;18.99;79.90
71291;DHT22;59073;51.994;4.448;2022-08-19T02:57:54;19.05;80.41
71291;DHT22;59073;51.994;4.448;2022-08-19T03:00:20;19.12;80.40
71291;DHT22;59073;51.994;4.448;2022-08-19T03:02:45;19.12;80.36
71291;DHT22;59073;51.994;4.448;2022-08-19T03:05:12;19.15;80.53
71291;DHT22;59073;51.994;4.448;2022-08-19T03:07:38;19.15;80.64
71291;DHT22;59073;51.994;4.448;2022-08-19T03:10:04;19.19;80.47
71291;DHT22;59073;51.994;4.448;2022-08-19T03:12:30;19.19;80.97
71291;DHT22;59073;51.994;4.448;2022-08-19T03:14:55;19.22;80.74
71291;DHT22;59073;51.994;4.448;2022-08-19T03:17:21;19.11;80.40
71291;DHT22;59073;51.994;4.448;2022-08-19T03:19:46;19.09;80.77
71291;DHT22;59073;51.994;4.448;2022-08-19T03:22:12;19.08;80.76
71291;DHT22;59073;51.994;4.448;2022-08-19T03:24:38;19.05;80.63
71291;DHT22;59073;51.994;4.448;2022-08-19T03:27:03;19.09;80.37
71291;DHT22;59073;51.994;4.448;2022-08-19T03:29:31;19.12;80.47
71291;DHT22;59073;51.994;4.448;2022-08-19T03:32:04;19.19;80.02
71291;DHT22;59073;51.994;4.448;2022-08-19T03:34:32;19.03;79.76
71291;DHT22;59073;51.994;4.448;2022-08-19T03:37:01;18.94;79.57
71291;DHT22;59073;51.994;4.448;2022-08-19T03:39:27;18.89;79.69
71291;DHT22;59073;51.994;4.448;2022-08-19T03:41:55;18.88;79.94
71291;DHT22;59073;51.994;4.448;2022-08-19T03:44:23;18.95;80.17
71291;DHT22;59073;51.994;4.448;2022-08-19T03:46:54;18.95;79.99
71291;DHT22;59073;51.994;4.448;2022-08-19T03:49:27;18.96;79.74
71291;DHT22;59073;51.994;4.448;2022-08-19T03:51:54;18.94;79.93
71291;DHT22;59073;51.994;4.448;2022-08-19T03:54:21;18.98;80.13
71291;DHT22;59073;51.994;4.448;2022-08-19T03:56:52;18.99;80.20
71291;DHT22;59073;51.994;4.448;2022-08-19T03:59:22;19.09;80.20
71291;DHT22;59073;51.994;4.448;2022-08-19T04:01:55;19.03;79.58
71291;DHT22;59073;51.994;4.448;2022-08-19T04:04:21;18.94;79.75
71291;DHT22;59073;51.994;4.448;2022-08-19T04:06:47;18.94;79.89
71291;DHT22;59073;51.994;4.448;2022-08-19T04:09:14;18.91;79.89
71291;DHT22;59073;51.994;4.448;2022-08-19T04:11:51;18.84;79.83
71291;DHT22;59073;51.994;4.448;2022-08-19T04:14:21;18.82;80.67
71291;DHT22;59073;51.994;4.448;2022-08-19T04:16:48;18.85;80.37
71291;DHT22;59073;51.994;4.448;2022-08-19T04:19:15;18.82;80.08
71291;DHT22;59073;51.994;4.448;2022-08-19T04:21:44;18.79;80.77
71291;DHT22;59073;51.994;4.448;2022-08-19T04:24:11;18.88;81.16
71291;DHT22;59073;51.994;4.448;2022-08-19T04:26:37;18.99;81.46
71291;DHT22;59073;51.994;4.448;2022-08-19T04:29:07;19.16;81.75
71291;DHT22;59073;51.994;4.448;2022-08-19T04:31:43;19.29;82.51
71291;DHT22;59073;51.994;4.448;2022-08-19T04:34:12;19.49;82.20
71291;DHT22;59073;51.994;4.448;2022-08-19T04:36:41;19.63;82.69
71291;DHT22;59073;51.994;4.448;2022-08-19T04:39:23;19.70;82.31
71291;DHT22;59073;51.994;4.448;2022-08-19T04:42:08;19.73;83.07
71291;DHT22;59073;51.994;4.448;2022-08-19T04:44:53;19.74;83.65
71291;DHT22;59073;51.994;4.448;2022-08-19T04:47:18;19.87;83.52
71291;DHT22;59073;51.994;4.448;2022-08-19T04:49:43;19.81;83.91
71291;DHT22;59073;51.994;4.448;2022-08-19T04:52:09;19.85;84.00
71291;DHT22;59073;51.994;4.448;2022-08-19T04:54:34;19.80;84.43
71291;DHT22;59073;51.994;4.448;2022-08-19T04:57:00;19.85;84.38
71291;DHT22;59073;51.994;4.448;2022-08-19T04:59:25;19.91;84.40
71291;DHT22;59073;51.994;4.448;2022-08-19T05:01:51;19.95;84.76
71291;DHT22;59073;51.994;4.448;2022-08-19T05:04:19;20.00;84.41
71291;DHT22;59073;51.994;4.448;2022-08-19T05:06:47;20.07;84.41
71291;DHT22;59073;51.994;4.448;2022-08-19T05:09:13;20.12;84.26
71291;DHT22;59073;51.994;4.448;2022-08-19T05:11:42;20.25;84.07
71291;DHT22;59073;51.994;4.448;2022-08-19T05:14:09;20.31;83.54
71291;DHT22;59073;51.994;4.448;2022-08-19T05:16:35;20.36;83.67
71291;DHT22;59073;51.994;4.448;2022-08-19T05:19:00;20.41;83.64
71291;DHT22;59073;51.994;4.448;2022-08-19T05:21:45;20.49;83.39
71291;DHT22;59073;51.994;4.448;2022-08-19T05:24:30;20.56;83.35
71291;DHT22;59073;51.994;4.448;2022-08-19T05:27:03;20.66;82.88
71291;DHT22;59073;51.994;4.448;2022-08-19T05:29:33;20.75;82.73
71291;DHT22;59073;51.994;4.448;2022-08-19T05:32:04;20.82;82.35
71291;DHT22;59073;51.994;4.448;2022-08-19T05:34:36;20.84;82.19
71291;DHT22;59073;51.994;4.448;2022-08-19T05:37:04;20.94;82.27
71291;DHT22;59073;51.994;4.448;2022-08-19T05:39:33;21.00;81.91
71291;DHT22;59073;51.994;4.448;2022-08-19T05:42:03;21.07;81.64
71291;DHT22;59073;51.994;4.448;2022-08-19T05:44:33;21.17;81.40
71291;DHT22;59073;51.994;4.448;2022-08-19T05:47:01;21.20;81.32
71291;DHT22;59073;51.994;4.448;2022-08-19T05:49:28;21.23;81.46
71291;DHT22;59073;51.994;4.448;2022-08-19T05:51:54;21.21;81.48
71291;DHT22;59073;51.994;4.448;2022-08-19T05:54:21;21.26;81.21
71291;DHT22;59073;51.994;4.448;2022-08-19T05:56:58;21.26;81.10
71291;DHT22;59073;51.994;4.448;2022-08-19T05:59:36;21.26;81.18
71291;DHT22;59073;51.994;4.448;2022-08-19T06:02:06;21.47;80.87
71291;DHT22;59073;51.994;4.448;2022-08-19T06:04:35;21.62;79.86
71291;DHT22;59073;51.994;4.448;2022-08-19T06:07:02;21.77;79.42
71291;DHT22;59073;51.994;4.448;2022-08-19T06:09:28;22.09;79.02
71291;DHT22;59073;51.994;4.448;2022-08-19T06:11:56;22.19;78.40
71291;DHT22;59073;51.994;4.448;2022-08-19T06:14:27;22.09;78.72
71291;DHT22;59073;51.994;4.448;2022-08-19T06:16:53;22.16;78.97
71291;DHT22;59073;51.994;4.448;2022-08-19T06:19:21;22.16;79.13
71291;DHT22;59073;51.994;4.448;2022-08-19T06:21:49;22.23;78.80
71291;DHT22;59073;51.994;4.448;2022-08-19T06:24:19;22.22;78.42
71291;DHT22;59073;51.994;4.448;2022-08-19T06:26:47;22.33;78.72
71291;DHT22;59073;51.994;4.448;2022-08-19T06:29:15;22.47;78.25
71291;DHT22;59073;51.994;4.448;2022-08-19T06:31:45;22.54;78.02
71291;DHT22;59073;51.994;4.448;2022-08-19T06:34:11;22.56;78.18
71291;DHT22;59073;51.994;4.448;2022-08-19T06:36:41;22.57;77.80
71291;DHT22;59073;51.994;4.448;2022-08-19T06:39:15;22.68;77.81
71291;DHT22;59073;51.994;4.448;2022-08-19T06:41:44;22.80;77.39
71291;DHT22;59073;51.994;4.448;2022-08-19T06:44:10;22.84;77.03
71291;DHT22;59073;51.994;4.448;2022-08-19T06:46:38;22.68;77.84
71291;DHT22;59073;51.994;4.448;2022-08-19T06:49:04;22.54;77.95
71291;DHT22;59073;51.994;4.448;2022-08-19T06:51:29;22.64;78.03
71291;DHT22;59073;51.994;4.448;2022-08-19T06:53:56;22.71;77.93
71291;DHT22;59073;51.994;4.448;2022-08-19T06:56:25;22.64;78.01
71291;DHT22;59073;51.994;4.448;2022-08-19T06:58:56;22.81;78.25
71291;DHT22;59073;51.994;4.448;2022-08-19T07:01:22;23.10;77.52
71291;DHT22;59073;51.994;4.448;2022-08-19T07:03:48;23.41;77.02
71291;DHT22;59073;51.994;4.448;2022-08-19T07:06:16;23.53;76.51
71291;DHT22;59073;51.994;4.448;2022-08-19T07:08:46;23.73;75.92
71291;DHT22;59073;51.994;4.448;2022-08-19T07:11:17;23.96;75.19
71291;DHT22;59073;51.994;4.448;2022-08-19T07:13:44;23.59;74.74
71291;DHT22;59073;51.994;4.448;2022-08-19T07:16:16;23.35;75.97
71291;DHT22;59073;51.994;4.448;2022-08-19T07:18:42;23.15;76.76
71291;DHT22;59073;51.994;4.448;2022-08-19T07:24:05;23.05;76.51
71291;DHT22;59073;51.994;4.448;2022-08-19T07:26:33;23.25;76.71
71291;DHT22;59073;51.994;4.448;2022-08-19T07:29:05;23.39;76.33
71291;DHT22;59073;51.994;4.448;2022-08-19T07:31:43;23.46;76.10
71291;DHT22;59073;51.994;4.448;2022-08-19T07:34:19;23.67;75.16
71291;DHT22;59073;51.994;4.448;2022-08-19T07:37:08;23.70;74.99
71291;DHT22;59073;51.994;4.448;2022-08-19T07:39:42;23.63;74.58
71291;DHT22;59073;51.994;4.448;2022-08-19T07:42:10;23.58;74.64
71291;DHT22;59073;51.994;4.448;2022-08-19T07:44:50;23.59;75.29
71291;DHT22;59073;51.994;4.448;2022-08-19T07:47:50;23.56;74.91
71291;DHT22;59073;51.994;4.448;2022-08-19T07:54:11;23.67;75.01
71291;DHT22;59073;51.994;4.448;2022-08-19T07:57:05;23.97;74.32
71291;DHT22;59073;51.994;4.448;2022-08-19T07:59:35;24.13;73.81
71291;DHT22;59073;51.994;4.448;2022-08-19T08:02:10;24.23;73.44
71291;DHT22;59073;51.994;4.448;2022-08-19T08:04:38;24.14;73.29
71291;DHT22;59073;51.994;4.448;2022-08-19T08:07:22;24.14;72.85
71291;DHT22;59073;51.994;4.448;2022-08-19T08:10:07;23.97;73.87
71291;DHT22;59073;51.994;4.448;2022-08-19T08:12:39;23.82;74.16
71291;DHT22;59073;51.994;4.448;2022-08-19T08:15:14;23.86;74.40
71291;DHT22;59073;51.994;4.448;2022-08-19T08:17:46;23.94;74.82
71291;DHT22;59073;51.994;4.448;2022-08-19T08:26:50;24.25;73.59
71291;DHT22;59073;51.994;4.448;2022-08-19T08:36:18;24.54;72.52
71291;DHT22;59073;51.994;4.448;2022-08-19T08:42:42;25.80;68.35
71291;DHT22;59073;51.994;4.448;2022-08-19T08:56:24;27.23;64.05
71291;DHT22;59073;51.994;4.448;2022-08-19T09:02:32;28.64;60.98
71291;DHT22;59073;51.994;4.448;2022-08-19T09:05:13;28.65;58.56
71291;DHT22;59073;51.994;4.448;2022-08-19T09:11:03;28.87;59.38
71291;DHT22;59073;51.994;4.448;2022-08-19T09:17:08;27.92;60.70
71291;DHT22;59073;51.994;4.448;2022-08-19T09:20:02;27.18;62.51
71291;DHT22;59073;51.994;4.448;2022-08-19T09:22:43;26.86;63.42
71291;DHT22;59073;51.994;4.448;2022-08-19T09:25:20;26.60;63.73
71291;DHT22;59073;51.994;4.448;2022-08-19T09:27:49;26.38;64.17
71291;DHT22;59073;51.994;4.448;2022-08-19T10:23:20;28.67;54.95
71291;DHT22;59073;51.994;4.448;2022-08-19T10:25:46;27.92;57.62
71291;DHT22;59073;51.994;4.448;2022-08-19T10:28:11;27.48;58.98
71291;DHT22;59073;51.994;4.448;2022-08-19T10:30:39;27.15;59.71
71291;DHT22;59073;51.994;4.448;2022-08-19T10:33:06;27.26;61.68
71291;DHT22;59073;51.994;4.448;2022-08-19T10:35:32;27.50;60.34
71291;DHT22;59073;51.994;4.448;2022-08-19T10:37:58;27.50;61.87
71291;DHT22;59073;51.994;4.448;2022-08-19T10:40:26;27.33;59.99
71291;DHT22;59073;51.994;4.448;2022-08-19T10:42:52;27.00;61.46
71291;DHT22;59073;51.994;4.448;2022-08-19T10:45:18;26.75;61.41
71291;DHT22;59073;51.994;4.448;2022-08-19T10:47:45;26.45;62.93
71291;DHT22;59073;51.994;4.448;2022-08-19T10:50:11;26.11;62.12
71291;DHT22;59073;51.994;4.448;2022-08-19T10:52:55;26.17;63.51
71291;DHT22;59073;51.994;4.448;2022-08-19T10:55:23;26.39;63.91
71291;DHT22;59073;51.994;4.448;2022-08-19T10:58:13;26.20;63.79
71291;DHT22;59073;51.994;4.448;2022-08-19T11:00:39;25.64;66.95
71291;DHT22;59073;51.994;4.448;2022-08-19T11:03:05;25.70;67.10
71291;DHT22;59073;51.994;4.448;2022-08-19T11:05:31;25.49;66.70
71291;DHT22;59073;51.994;4.448;2022-08-19T11:07:56;25.44;66.23
71291;DHT22;59073;51.994;4.448;2022-08-19T11:10:22;25.56;66.19
71291;DHT22;59073;51.994;4.448;2022-08-19T11:12:48;25.78;65.85
71291;DHT22;59073;51.994;4.448;2022-08-19T11:15:19;25.90;65.75
71291;DHT22;59073;51.994;4.448;2022-08-19T11:17:45;25.81;64.79
71291;DHT22;59073;51.994;4.448;2022-08-19T11:20:12;25.77;65.83
71291;DHT22;59073;51.994;4.448;2022-08-19T11:23:03;25.87;66.14
71291;DHT22;59073;51.994;4.448;2022-08-19T11:25:40;26.04;65.06
71291;DHT22;59073;51.994;4.448;2022-08-19T11:28:05;26.35;65.66
71291;DHT22;59073;51.994;4.448;2022-08-19T11:30:31;26.68;62.60
71291;DHT22;59073;51.994;4.448;2022-08-19T11:32:57;27.06;61.67
71291;DHT22;59073;51.994;4.448;2022-08-19T11:35:22;27.31;61.70
71291;DHT22;59073;51.994;4.448;2022-08-19T11:37:48;27.41;61.24
71291;DHT22;59073;51.994;4.448;2022-08-19T11:40:13;26.83;62.10
71291;DHT22;59073;51.994;4.448;2022-08-19T11:42:39;26.63;63.05
71291;DHT22;59073;51.994;4.448;2022-08-19T11:45:25;26.43;63.88
71291;DHT22;59073;51.994;4.448;2022-08-19T11:48:01;25.34;67.58
71291;DHT22;59073;51.994;4.448;2022-08-19T11:50:27;24.82;69.06
71291;DHT22;59073;51.994;4.448;2022-08-19T11:53:03;24.81;69.70
71291;DHT22;59073;51.994;4.448;2022-08-19T11:55:28;25.09;69.31
71291;DHT22;59073;51.994;4.448;2022-08-19T11:57:54;25.74;67.55
71291;DHT22;59073;51.994;4.448;2022-08-19T12:00:19;25.81;65.98
71291;DHT22;59073;51.994;4.448;2022-08-19T12:02:45;25.51;66.85
71291;DHT22;59073;51.994;4.448;2022-08-19T12:05:10;26.01;66.86
71291;DHT22;59073;51.994;4.448;2022-08-19T12:07:36;26.26;66.39
71291;DHT22;59073;51.994;4.448;2022-08-19T12:10:01;25.80;66.36
71291;DHT22;59073;51.994;4.448;2022-08-19T12:12:29;26.04;66.89
71291;DHT22;59073;51.994;4.448;2022-08-19T12:14:55;25.94;67.38
71291;DHT22;59073;51.994;4.448;2022-08-19T12:17:25;25.56;68.01
71291;DHT22;59073;51.994;4.448;2022-08-19T12:19:51;25.30;68.49
71291;DHT22;59073;51.994;4.448;2022-08-19T12:22:17;25.64;69.45
71291;DHT22;59073;51.994;4.448;2022-08-19T12:24:43;25.33;68.36
71291;DHT22;59073;51.994;4.448;2022-08-19T12:27:09;25.64;68.58
71291;DHT22;59073;51.994;4.448;2022-08-19T12:29:34;24.96;69.74
71291;DHT22;59073;51.994;4.448;2022-08-19T12:32:02;25.30;69.10
71291;DHT22;59073;51.994;4.448;2022-08-19T12:34:29;25.74;68.53
71291;DHT22;59073;51.994;4.448;2022-08-19T12:37:02;25.98;67.06
71291;DHT22;59073;51.994;4.448;2022-08-19T12:39:27;26.18;67.09
71291;DHT22;59073;51.994;4.448;2022-08-19T12:41:53;26.33;66.18
71291;DHT22;59073;51.994;4.448;2022-08-19T12:44:19;26.22;66.14
71291;DHT22;59073;51.994;4.448;2022-08-19T12:46:47;26.42;66.82
71291;DHT22;59073;51.994;4.448;2022-08-19T12:49:14;26.45;64.89
71291;DHT22;59073;51.994;4.448;2022-08-19T12:51:41;26.36;65.38
71291;DHT22;59073;51.994;4.448;2022-08-19T12:54:07;26.66;65.47
71291;DHT22;59073;51.994;4.448;2022-08-19T12:56:33;26.52;64.60
71291;DHT22;59073;51.994;4.448;2022-08-19T12:59:02;26.02;66.40
71291;DHT22;59073;51.994;4.448;2022-08-19T13:01:28;26.18;66.16
71291;DHT22;59073;51.994;4.448;2022-08-19T13:03:58;26.29;64.64
71291;DHT22;59073;51.994;4.448;2022-08-19T13:06:25;26.57;65.02
71291;DHT22;59073;51.994;4.448;2022-08-19T13:08:51;26.64;64.69
71291;DHT22;59073;51.994;4.448;2022-08-19T13:11:21;26.84;65.28
71291;DHT22;59073;51.994;4.448;2022-08-19T13:13:51;27.08;64.01
71291;DHT22;59073;51.994;4.448;2022-08-19T13:16:18;27.26;64.51
71291;DHT22;59073;51.994;4.448;2022-08-19T13:18:45;27.37;63.28
71291;DHT22;59073;51.994;4.448;2022-08-19T13:21:18;27.38;63.92
71291;DHT22;59073;51.994;4.448;2022-08-19T13:23:45;27.51;62.92
71291;DHT22;59073;51.994;4.448;2022-08-19T13:26:12;27.44;62.62
71291;DHT22;59073;51.994;4.448;2022-08-19T13:28:39;27.33;62.13
71291;DHT22;59073;51.994;4.448;2022-08-19T13:31:26;27.17;62.46
71291;DHT22;59073;51.994;4.448;2022-08-19T13:34:10;27.17;62.59
71291;DHT22;59073;51.994;4.448;2022-08-19T13:36:37;26.96;61.90
71291;DHT22;59073;51.994;4.448;2022-08-19T13:39:04;27.08;62.69
71291;DHT22;59073;51.994;4.448;2022-08-19T13:41:30;27.15;62.86
71291;DHT22;59073;51.994;4.448;2022-08-19T13:43:56;27.34;61.86
71291;DHT22;59073;51.994;4.448;2022-08-19T13:46:22;27.44;61.30
71291;DHT22;59073;51.994;4.448;2022-08-19T13:48:48;27.24;58.23
71291;DHT22;59073;51.994;4.448;2022-08-19T13:51:15;27.17;61.07
71291;DHT22;59073;51.994;4.448;2022-08-19T13:53:43;27.18;61.14
71291;DHT22;59073;51.994;4.448;2022-08-19T13:56:12;27.14;60.34
71291;DHT22;59073;51.994;4.448;2022-08-19T13:58:39;27.06;60.71
71291;DHT22;59073;51.994;4.448;2022-08-19T14:01:05;27.00;61.72
71291;DHT22;59073;51.994;4.448;2022-08-19T14:03:33;26.94;62.19
71291;DHT22;59073;51.994;4.448;2022-08-19T14:05:59;26.72;61.33
71291;DHT22;59073;51.994;4.448;2022-08-19T14:08:25;26.69;62.74
71291;DHT22;59073;51.994;4.448;2022-08-19T14:10:54;26.78;62.31
71291;DHT22;59073;51.994;4.448;2022-08-19T14:13:22;26.69;62.83
71291;DHT22;59073;51.994;4.448;2022-08-19T14:15:48;26.62;62.95
71291;DHT22;59073;51.994;4.448;2022-08-19T14:18:18;26.57;62.62
71291;DHT22;59073;51.994;4.448;2022-08-19T14:20:47;26.48;63.51
71291;DHT22;59073;51.994;4.448;2022-08-19T14:23:12;26.42;63.16
71291;DHT22;59073;51.994;4.448;2022-08-19T14:25:39;26.53;63.55
71291;DHT22;59073;51.994;4.448;2022-08-19T14:28:04;26.56;64.01
71291;DHT22;59073;51.994;4.448;2022-08-19T14:30:33;26.42;63.93
71291;DHT22;59073;51.994;4.448;2022-08-19T14:33:01;26.08;65.85
71291;DHT22;59073;51.994;4.448;2022-08-19T14:35:29;25.67;67.55
71291;DHT22;59073;51.994;4.448;2022-08-19T14:37:55;25.61;67.97
71291;DHT22;59073;51.994;4.448;2022-08-19T14:40:25;25.60;68.25
71291;DHT22;59073;51.994;4.448;2022-08-19T14:42:52;25.77;67.74
71291;DHT22;59073;51.994;4.448;2022-08-19T14:45:21;25.85;67.86
71291;DHT22;59073;51.994;4.448;2022-08-19T14:47:46;25.82;67.58
71291;DHT22;59073;51.994;4.448;2022-08-19T14:50:12;25.74;67.22
71291;DHT22;59073;51.994;4.448;2022-08-19T14:52:46;25.75;67.97
71291;DHT22;59073;51.994;4.448;2022-08-19T14:55:17;25.73;67.70
71291;DHT22;59073;51.994;4.448;2022-08-19T14:57:44;25.64;67.48
71291;DHT22;59073;51.994;4.448;2022-08-19T15:00:13;25.43;68.21
71291;DHT22;59073;51.994;4.448;2022-08-19T15:02:39;25.03;68.83
71291;DHT22;59073;51.994;4.448;2022-08-19T15:05:06;24.89;68.93
71291;DHT22;59073;51.994;4.448;2022-08-19T15:07:32;24.65;70.42
71291;DHT22;59073;51.994;4.448;2022-08-19T15:09:58;24.64;70.33
71291;DHT22;59073;51.994;4.448;2022-08-19T15:12:24;24.50;71.08
71291;DHT22;59073;51.994;4.448;2022-08-19T15:14:49;24.32;72.47
71291;DHT22;59073;51.994;4.448;2022-08-19T15:17:17;23.82;74.70
71291;DHT22;59073;51.994;4.448;2022-08-19T15:19:43;23.43;76.60
71291;DHT22;59073;51.994;4.448;2022-08-19T15:22:08;23.05;77.99
71291;DHT22;59073;51.994;4.448;2022-08-19T15:24:34;23.22;77.49
71291;DHT22;59073;51.994;4.448;2022-08-19T15:27:01;23.45;77.25
71291;DHT22;59073;51.994;4.448;2022-08-19T15:36:05;23.72;76.55
71291;DHT22;59073;51.994;4.448;2022-08-19T15:48:52;23.66;75.84
71291;DHT22;59073;51.994;4.448;2022-08-19T15:51:28;23.67;75.50
71291;DHT22;59073;51.994;4.448;2022-08-19T15:54:31;23.73;76.35
71291;DHT22;59073;51.994;4.448;2022-08-19T15:57:04;23.92;75.68
71291;DHT22;59073;51.994;4.448;2022-08-19T16:00:39;24.18;75.48
71291;DHT22;59073;51.994;4.448;2022-08-19T16:03:16;24.48;75.03
71291;DHT22;59073;51.994;4.448;2022-08-19T16:06:00;24.67;74.69
71291;DHT22;59073;51.994;4.448;2022-08-19T16:08:45;25.01;73.06
71291;DHT22;59073;51.994;4.448;2022-08-19T16:11:34;25.36;72.48
71291;DHT22;59073;51.994;4.448;2022-08-19T16:14:30;25.51;71.46
71291;DHT22;59073;51.994;4.448;2022-08-19T16:24:09;25.70;69.84
71291;DHT22;59073;51.994;4.448;2022-08-19T16:39:19;25.30;69.87
71291;DHT22;59073;51.994;4.448;2022-08-19T16:48:55;25.32;69.80
71291;DHT22;59073;51.994;4.448;2022-08-19T16:51:33;25.33;70.03
71291;DHT22;59073;51.994;4.448;2022-08-19T16:57:41;25.05;69.22
71291;DHT22;59073;51.994;4.448;2022-08-19T17:00:15;24.93;70.04
71291;DHT22;59073;51.994;4.448;2022-08-19T17:02:41;24.69;70.62
71291;DHT22;59073;51.994;4.448;2022-08-19T17:05:15;24.76;70.42
71291;DHT22;59073;51.994;4.448;2022-08-19T17:07:47;24.71;69.75
71291;DHT22;59073;51.994;4.448;2022-08-19T17:10:12;24.75;70.59
71291;DHT22;59073;51.994;4.448;2022-08-19T17:12:38;24.76;70.40
71291;DHT22;59073;51.994;4.448;2022-08-19T17:15:07;24.76;70.82
71291;DHT22;59073;51.994;4.448;2022-08-19T17:17:33;24.78;70.26
71291;DHT22;59073;51.994;4.448;2022-08-19T17:20:00;24.68;69.97
71291;DHT22;59073;51.994;4.448;2022-08-19T17:22:43;24.72;69.59
71291;DHT22;59073;51.994;4.448;2022-08-19T17:25:09;24.58;69.95
71291;DHT22;59073;51.994;4.448;2022-08-19T17:27:41;24.57;71.04
71291;DHT22;59073;51.994;4.448;2022-08-19T17:30:06;24.62;71.17
71291;DHT22;59073;51.994;4.448;2022-08-19T17:32:34;24.65;70.52
71291;DHT22;59073;51.994;4.448;2022-08-19T17:35:27;24.60;70.54
71291;DHT22;59073;51.994;4.448;2022-08-19T17:37:55;24.48;71.02
71291;DHT22;59073;51.994;4.448;2022-08-19T17:40:22;24.41;71.00
71291;DHT22;59073;51.994;4.448;2022-08-19T17:42:57;24.41;70.32
71291;DHT22;59073;51.994;4.448;2022-08-19T17:45:52;24.41;70.77
71291;DHT22;59073;51.994;4.448;2022-08-19T17:51:50;24.14;70.89
71291;DHT22;59073;51.994;4.448;2022-08-19T17:54:18;24.11;71.30
71291;DHT22;59073;51.994;4.448;2022-08-19T18:17:08;24.37;72.00
71291;DHT22;59073;51.994;4.448;2022-08-19T18:45:53;24.23;71.15
71291;DHT22;59073;51.994;4.448;2022-08-19T18:49:16;24.16;71.22
71291;DHT22;59073;51.994;4.448;2022-08-19T18:55:27;24.07;71.64
71291;DHT22;59073;51.994;4.448;2022-08-19T20:00:31;23.69;72.26
71291;DHT22;59073;51.994;4.448;2022-08-19T20:02:58;23.55;72.73
71291;DHT22;59073;51.994;4.448;2022-08-19T20:16:33;22.90;74.47
71291;DHT22;59073;51.994;4.448;2022-08-19T20:19:52;22.61;75.19
71291;DHT22;59073;51.994;4.448;2022-08-19T20:23:00;22.50;75.86
